sensor_id;sensor_type;location;lat;lon;timestamp;P1;durP1;ratioP1;P2;durP2;ratioP2
53309;SDS011;39197;53.200;5.792;2023-05-07T00:01:15;25.77;;;22.48;;
53309;SDS011;39197;53.200;5.792;2023-05-07T00:03:41;26.13;;;23.42;;
53309;SDS011;39197;53.200;5.792;2023-05-07T00:06:06;25.48;;;22.88;;
53309;SDS011;39197;53.200;5.792;2023-05-07T00:08:32;27.60;;;24.42;;
53309;SDS011;39197;53.200;5.792;2023-05-07T00:10:58;29.40;;;24.48;;
53309;SDS011;39197;53.200;5.792;2023-05-07T00:13:23;28.10;;;25.08;;
53309;SDS011;39197;53.200;5.792;2023-05-07T00:15:49;36.30;;;32.17;;
53309;SDS011;39197;53.200;5.792;2023-05-07T00:18:14;28.10;;;25.10;;
53309;SDS011;39197;53.200;5.792;2023-05-07T00:20:40;27.55;;;24.38;;
53309;SDS011;39197;53.200;5.792;2023-05-07T00:23:06;26.92;;;22.73;;
53309;SDS011;39197;53.200;5.792;2023-05-07T00:25:32;31.88;;;28.45;;
53309;SDS011;39197;53.200;5.792;2023-05-07T00:27:57;32.28;;;28.85;;
53309;SDS011;39197;53.200;5.792;2023-05-07T00:30:28;26.05;;;23.35;;
53309;SDS011;39197;53.200;5.792;2023-05-07T00:32:54;25.42;;;22.83;;
53309;SDS011;39197;53.200;5.792;2023-05-07T00:35:20;25.85;;;22.92;;
53309;SDS011;39197;53.200;5.792;2023-05-07T00:37:45;26.13;;;22.85;;
53309;SDS011;39197;53.200;5.792;2023-05-07T00:40:11;25.65;;;22.48;;
53309;SDS011;39197;53.200;5.792;2023-05-07T00:42:36;25.90;;;22.95;;
53309;SDS011;39197;53.200;5.792;2023-05-07T00:45:02;25.15;;;22.73;;
53309;SDS011;39197;53.200;5.792;2023-05-07T00:47:28;32.35;;;28.88;;
53309;SDS011;39197;53.200;5.792;2023-05-07T00:49:54;25.60;;;22.75;;
53309;SDS011;39197;53.200;5.792;2023-05-07T00:52:20;27.17;;;23.48;;
53309;SDS011;39197;53.200;5.792;2023-05-07T00:54:48;26.85;;;23.92;;
53309;SDS011;39197;53.200;5.792;2023-05-07T00:57:14;27.92;;;24.77;;
53309;SDS011;39197;53.200;5.792;2023-05-07T00:59:40;26.98;;;24.02;;
53309;SDS011;39197;53.200;5.792;2023-05-07T01:02:06;27.05;;;24.15;;
53309;SDS011;39197;53.200;5.792;2023-05-07T01:04:32;26.60;;;23.52;;
53309;SDS011;39197;53.200;5.792;2023-05-07T01:06:58;28.15;;;24.35;;
53309;SDS011;39197;53.200;5.792;2023-05-07T01:09:25;27.58;;;24.73;;
53309;SDS011;39197;53.200;5.792;2023-05-07T01:11:52;28.48;;;25.33;;
53309;SDS011;39197;53.200;5.792;2023-05-07T01:14:20;27.13;;;22.98;;
53309;SDS011;39197;53.200;5.792;2023-05-07T01:16:46;26.92;;;23.73;;
53309;SDS011;39197;53.200;5.792;2023-05-07T01:19:13;31.05;;;25.52;;
53309;SDS011;39197;53.200;5.792;2023-05-07T01:21:42;29.02;;;24.58;;
53309;SDS011;39197;53.200;5.792;2023-05-07T01:24:11;29.92;;;25.42;;
53309;SDS011;39197;53.200;5.792;2023-05-07T01:26:37;27.17;;;24.38;;
53309;SDS011;39197;53.200;5.792;2023-05-07T01:29:03;30.13;;;25.25;;
53309;SDS011;39197;53.200;5.792;2023-05-07T01:31:29;26.35;;;23.67;;
53309;SDS011;39197;53.200;5.792;2023-05-07T01:33:55;31.67;;;28.13;;
53309;SDS011;39197;53.200;5.792;2023-05-07T01:36:24;29.27;;;26.08;;
53309;SDS011;39197;53.200;5.792;2023-05-07T01:38:52;28.45;;;25.45;;
53309;SDS011;39197;53.200;5.792;2023-05-07T01:41:18;32.30;;;28.52;;
53309;SDS011;39197;53.200;5.792;2023-05-07T01:43:44;28.17;;;24.73;;
53309;SDS011;39197;53.200;5.792;2023-05-07T01:46:12;29.75;;;26.52;;
53309;SDS011;39197;53.200;5.792;2023-05-07T01:48:39;29.55;;;26.02;;
53309;SDS011;39197;53.200;5.792;2023-05-07T01:51:05;27.98;;;24.73;;
53309;SDS011;39197;53.200;5.792;2023-05-07T01:53:35;31.95;;;26.38;;
53309;SDS011;39197;53.200;5.792;2023-05-07T01:56:01;32.65;;;27.80;;
53309;SDS011;39197;53.200;5.792;2023-05-07T01:58:27;30.55;;;27.23;;
53309;SDS011;39197;53.200;5.792;2023-05-07T02:00:53;30.33;;;27.13;;
53309;SDS011;39197;53.200;5.792;2023-05-07T02:03:18;36.45;;;30.50;;
53309;SDS011;39197;53.200;5.792;2023-05-07T02:05:44;32.55;;;28.70;;
53309;SDS011;39197;53.200;5.792;2023-05-07T02:08:09;34.42;;;28.50;;
53309;SDS011;39197;53.200;5.792;2023-05-07T02:10:35;33.00;;;28.45;;
53309;SDS011;39197;53.200;5.792;2023-05-07T02:13:01;34.97;;;29.33;;
53309;SDS011;39197;53.200;5.792;2023-05-07T02:15:27;32.45;;;28.23;;
53309;SDS011;39197;53.200;5.792;2023-05-07T02:17:59;32.08;;;28.65;;
53309;SDS011;39197;53.200;5.792;2023-05-07T02:20:27;35.00;;;31.20;;
53309;SDS011;39197;53.200;5.792;2023-05-07T02:22:52;33.95;;;29.70;;
53309;SDS011;39197;53.200;5.792;2023-05-07T02:25:18;33.03;;;29.45;;
53309;SDS011;39197;53.200;5.792;2023-05-07T02:27:43;34.95;;;30.17;;
53309;SDS011;39197;53.200;5.792;2023-05-07T02:30:09;38.20;;;32.00;;
53309;SDS011;39197;53.200;5.792;2023-05-07T02:32:35;34.20;;;29.17;;
53309;SDS011;39197;53.200;5.792;2023-05-07T02:35:00;36.17;;;30.20;;
53309;SDS011;39197;53.200;5.792;2023-05-07T02:37:26;33.78;;;30.15;;
53309;SDS011;39197;53.200;5.792;2023-05-07T02:39:52;34.88;;;30.45;;
53309;SDS011;39197;53.200;5.792;2023-05-07T02:42:17;37.45;;;31.77;;
53309;SDS011;39197;53.200;5.792;2023-05-07T02:44:43;35.35;;;30.27;;
53309;SDS011;39197;53.200;5.792;2023-05-07T02:47:08;33.88;;;30.13;;
53309;SDS011;39197;53.200;5.792;2023-05-07T02:49:35;35.40;;;30.58;;
53309;SDS011;39197;53.200;5.792;2023-05-07T02:52:00;33.95;;;29.63;;
53309;SDS011;39197;53.200;5.792;2023-05-07T02:54:26;32.03;;;28.73;;
53309;SDS011;39197;53.200;5.792;2023-05-07T02:56:52;34.72;;;30.73;;
53309;SDS011;39197;53.200;5.792;2023-05-07T02:59:17;35.10;;;30.17;;
53309;SDS011;39197;53.200;5.792;2023-05-07T03:01:43;35.03;;;31.20;;
53309;SDS011;39197;53.200;5.792;2023-05-07T03:04:10;33.97;;;30.35;;
53309;SDS011;39197;53.200;5.792;2023-05-07T03:06:36;36.20;;;29.85;;
53309;SDS011;39197;53.200;5.792;2023-05-07T03:09:02;35.42;;;31.58;;
53309;SDS011;39197;53.200;5.792;2023-05-07T03:11:28;39.38;;;33.97;;
53309;SDS011;39197;53.200;5.792;2023-05-07T03:13:53;35.85;;;31.88;;
53309;SDS011;39197;53.200;5.792;2023-05-07T03:16:19;36.20;;;30.63;;
53309;SDS011;39197;53.200;5.792;2023-05-07T03:18:45;36.35;;;30.73;;
53309;SDS011;39197;53.200;5.792;2023-05-07T03:21:10;33.28;;;29.77;;
53309;SDS011;39197;53.200;5.792;2023-05-07T03:23:36;34.80;;;30.45;;
53309;SDS011;39197;53.200;5.792;2023-05-07T03:26:02;36.33;;;32.53;;
53309;SDS011;39197;53.200;5.792;2023-05-07T03:28:27;34.58;;;30.80;;
53309;SDS011;39197;53.200;5.792;2023-05-07T03:30:53;34.38;;;30.67;;
53309;SDS011;39197;53.200;5.792;2023-05-07T03:33:18;35.35;;;29.88;;
53309;SDS011;39197;53.200;5.792;2023-05-07T03:35:44;37.05;;;32.97;;
53309;SDS011;39197;53.200;5.792;2023-05-07T03:38:09;35.45;;;31.50;;
53309;SDS011;39197;53.200;5.792;2023-05-07T03:40:35;36.58;;;32.55;;
53309;SDS011;39197;53.200;5.792;2023-05-07T03:43:01;36.42;;;32.50;;
53309;SDS011;39197;53.200;5.792;2023-05-07T03:45:27;38.63;;;32.83;;
53309;SDS011;39197;53.200;5.792;2023-05-07T03:47:52;42.45;;;35.38;;
53309;SDS011;39197;53.200;5.792;2023-05-07T03:50:18;35.00;;;31.33;;
53309;SDS011;39197;53.200;5.792;2023-05-07T03:52:44;37.53;;;32.10;;
53309;SDS011;39197;53.200;5.792;2023-05-07T03:55:10;39.25;;;33.05;;
53309;SDS011;39197;53.200;5.792;2023-05-07T03:57:35;39.20;;;34.88;;
53309;SDS011;39197;53.200;5.792;2023-05-07T04:00:01;43.13;;;36.25;;
53309;SDS011;39197;53.200;5.792;2023-05-07T04:02:28;39.97;;;34.70;;
53309;SDS011;39197;53.200;5.792;2023-05-07T04:04:54;42.55;;;35.10;;
53309;SDS011;39197;53.200;5.792;2023-05-07T04:07:19;40.45;;;34.40;;
53309;SDS011;39197;53.200;5.792;2023-05-07T04:09:45;39.28;;;34.08;;
53309;SDS011;39197;53.200;5.792;2023-05-07T04:12:11;39.20;;;34.53;;
53309;SDS011;39197;53.200;5.792;2023-05-07T04:14:36;40.22;;;35.83;;
53309;SDS011;39197;53.200;5.792;2023-05-07T04:17:02;39.10;;;34.85;;
53309;SDS011;39197;53.200;5.792;2023-05-07T04:19:27;41.28;;;35.05;;
53309;SDS011;39197;53.200;5.792;2023-05-07T04:21:53;42.20;;;36.13;;
53309;SDS011;39197;53.200;5.792;2023-05-07T04:24:19;42.28;;;35.85;;
53309;SDS011;39197;53.200;5.792;2023-05-07T04:26:45;42.67;;;34.70;;
53309;SDS011;39197;53.200;5.792;2023-05-07T04:29:10;43.15;;;36.75;;
53309;SDS011;39197;53.200;5.792;2023-05-07T04:31:36;39.58;;;34.90;;
53309;SDS011;39197;53.200;5.792;2023-05-07T04:34:02;40.38;;;35.67;;
53309;SDS011;39197;53.200;5.792;2023-05-07T04:36:27;44.10;;;37.33;;
53309;SDS011;39197;53.200;5.792;2023-05-07T04:38:54;44.70;;;36.28;;
53309;SDS011;39197;53.200;5.792;2023-05-07T04:41:19;43.63;;;35.40;;
53309;SDS011;39197;53.200;5.792;2023-05-07T04:43:45;42.55;;;35.80;;
53309;SDS011;39197;53.200;5.792;2023-05-07T04:46:11;44.03;;;36.00;;
53309;SDS011;39197;53.200;5.792;2023-05-07T04:48:36;42.67;;;37.17;;
53309;SDS011;39197;53.200;5.792;2023-05-07T04:51:02;51.85;;;39.40;;
53309;SDS011;39197;53.200;5.792;2023-05-07T04:53:28;43.17;;;35.90;;
53309;SDS011;39197;53.200;5.792;2023-05-07T04:55:57;44.33;;;36.90;;
53309;SDS011;39197;53.200;5.792;2023-05-07T04:58:23;45.38;;;36.03;;
53309;SDS011;39197;53.200;5.792;2023-05-07T05:00:49;47.10;;;37.30;;
53309;SDS011;39197;53.200;5.792;2023-05-07T05:03:14;42.03;;;36.35;;
53309;SDS011;39197;53.200;5.792;2023-05-07T05:05:40;45.28;;;38.28;;
53309;SDS011;39197;53.200;5.792;2023-05-07T05:08:05;47.85;;;38.33;;
53309;SDS011;39197;53.200;5.792;2023-05-07T05:10:31;52.10;;;39.13;;
53309;SDS011;39197;53.200;5.792;2023-05-07T05:12:57;45.30;;;37.38;;
53309;SDS011;39197;53.200;5.792;2023-05-07T05:15:22;46.42;;;37.05;;
53309;SDS011;39197;53.200;5.792;2023-05-07T05:17:48;44.67;;;38.42;;
53309;SDS011;39197;53.200;5.792;2023-05-07T05:20:14;46.92;;;38.75;;
53309;SDS011;39197;53.200;5.792;2023-05-07T05:22:40;52.47;;;39.53;;
53309;SDS011;39197;53.200;5.792;2023-05-07T05:25:07;53.10;;;39.45;;
53309;SDS011;39197;53.200;5.792;2023-05-07T05:27:32;46.80;;;37.88;;
53309;SDS011;39197;53.200;5.792;2023-05-07T05:29:59;48.80;;;37.90;;
53309;SDS011;39197;53.200;5.792;2023-05-07T05:32:24;49.97;;;38.47;;
53309;SDS011;39197;53.200;5.792;2023-05-07T05:34:50;49.78;;;36.60;;
53309;SDS011;39197;53.200;5.792;2023-05-07T05:37:16;46.95;;;38.05;;
53309;SDS011;39197;53.200;5.792;2023-05-07T05:39:41;46.35;;;36.88;;
53309;SDS011;39197;53.200;5.792;2023-05-07T05:42:07;44.03;;;37.15;;
53309;SDS011;39197;53.200;5.792;2023-05-07T05:44:33;50.80;;;39.58;;
53309;SDS011;39197;53.200;5.792;2023-05-07T05:46:59;47.80;;;40.10;;
53309;SDS011;39197;53.200;5.792;2023-05-07T05:49:25;50.15;;;37.85;;
53309;SDS011;39197;53.200;5.792;2023-05-07T05:51:51;51.83;;;40.40;;
53309;SDS011;39197;53.200;5.792;2023-05-07T05:54:16;52.90;;;40.05;;
53309;SDS011;39197;53.200;5.792;2023-05-07T05:56:42;53.15;;;38.83;;
53309;SDS011;39197;53.200;5.792;2023-05-07T05:59:07;48.67;;;37.60;;
53309;SDS011;39197;53.200;5.792;2023-05-07T06:01:33;47.40;;;37.72;;
53309;SDS011;39197;53.200;5.792;2023-05-07T06:03:59;47.08;;;38.22;;
53309;SDS011;39197;53.200;5.792;2023-05-07T06:06:24;43.60;;;35.10;;
53309;SDS011;39197;53.200;5.792;2023-05-07T06:08:50;44.63;;;36.10;;
53309;SDS011;39197;53.200;5.792;2023-05-07T06:11:16;44.97;;;36.42;;
53309;SDS011;39197;53.200;5.792;2023-05-07T06:13:42;41.92;;;35.95;;
53309;SDS011;39197;53.200;5.792;2023-05-07T06:16:07;47.35;;;37.60;;
53309;SDS011;39197;53.200;5.792;2023-05-07T06:18:33;39.72;;;34.63;;
53309;SDS011;39197;53.200;5.792;2023-05-07T06:21:01;44.95;;;35.15;;
53309;SDS011;39197;53.200;5.792;2023-05-07T06:23:26;43.85;;;35.38;;
53309;SDS011;39197;53.200;5.792;2023-05-07T06:25:52;41.28;;;34.00;;
53309;SDS011;39197;53.200;5.792;2023-05-07T06:28:17;40.10;;;34.05;;
53309;SDS011;39197;53.200;5.792;2023-05-07T06:30:43;41.80;;;35.00;;
53309;SDS011;39197;53.200;5.792;2023-05-07T06:33:09;42.05;;;34.80;;
53309;SDS011;39197;53.200;5.792;2023-05-07T06:35:34;39.15;;;34.88;;
53309;SDS011;39197;53.200;5.792;2023-05-07T06:38:00;43.10;;;35.13;;
53309;SDS011;39197;53.200;5.792;2023-05-07T06:40:26;42.15;;;34.63;;
53309;SDS011;39197;53.200;5.792;2023-05-07T06:42:51;38.63;;;32.17;;
53309;SDS011;39197;53.200;5.792;2023-05-07T06:45:18;37.28;;;32.78;;
53309;SDS011;39197;53.200;5.792;2023-05-07T06:47:44;35.03;;;30.60;;
53309;SDS011;39197;53.200;5.792;2023-05-07T06:50:10;38.50;;;31.02;;
53309;SDS011;39197;53.200;5.792;2023-05-07T06:52:36;34.22;;;30.27;;
53309;SDS011;39197;53.200;5.792;2023-05-07T06:55:01;33.58;;;28.45;;
53309;SDS011;39197;53.200;5.792;2023-05-07T06:57:27;33.45;;;29.73;;
53309;SDS011;39197;53.200;5.792;2023-05-07T06:59:53;34.67;;;28.42;;
53309;SDS011;39197;53.200;5.792;2023-05-07T07:02:18;33.85;;;29.25;;
53309;SDS011;39197;53.200;5.792;2023-05-07T07:04:44;36.53;;;29.83;;
53309;SDS011;39197;53.200;5.792;2023-05-07T07:07:10;33.80;;;27.83;;
53309;SDS011;39197;53.200;5.792;2023-05-07T07:09:36;34.08;;;29.05;;
53309;SDS011;39197;53.200;5.792;2023-05-07T07:12:01;30.58;;;26.58;;
53309;SDS011;39197;53.200;5.792;2023-05-07T07:14:27;31.95;;;28.60;;
53309;SDS011;39197;53.200;5.792;2023-05-07T07:16:52;33.17;;;29.38;;
53309;SDS011;39197;53.200;5.792;2023-05-07T07:19:18;30.55;;;27.35;;
53309;SDS011;39197;53.200;5.792;2023-05-07T07:21:45;34.35;;;29.13;;
53309;SDS011;39197;53.200;5.792;2023-05-07T07:24:10;35.45;;;28.05;;
53309;SDS011;39197;53.200;5.792;2023-05-07T07:26:36;33.38;;;27.85;;
53309;SDS011;39197;53.200;5.792;2023-05-07T07:29:02;33.88;;;27.80;;
53309;SDS011;39197;53.200;5.792;2023-05-07T07:31:27;29.85;;;26.73;;
53309;SDS011;39197;53.200;5.792;2023-05-07T07:33:53;30.42;;;27.23;;
53309;SDS011;39197;53.200;5.792;2023-05-07T07:36:18;29.17;;;26.02;;
53309;SDS011;39197;53.200;5.792;2023-05-07T07:38:44;29.15;;;26.13;;
53309;SDS011;39197;53.200;5.792;2023-05-07T07:41:09;29.08;;;24.85;;
53309;SDS011;39197;53.200;5.792;2023-05-07T07:43:35;30.98;;;25.73;;
53309;SDS011;39197;53.200;5.792;2023-05-07T07:46:01;28.08;;;24.60;;
53309;SDS011;39197;53.200;5.792;2023-05-07T07:48:26;29.98;;;25.63;;
53309;SDS011;39197;53.200;5.792;2023-05-07T07:50:52;27.67;;;24.70;;
53309;SDS011;39197;53.200;5.792;2023-05-07T07:53:18;28.15;;;25.13;;
53309;SDS011;39197;53.200;5.792;2023-05-07T07:55:44;27.50;;;23.52;;
53309;SDS011;39197;53.200;5.792;2023-05-07T07:58:09;30.35;;;24.38;;
53309;SDS011;39197;53.200;5.792;2023-05-07T08:00:35;27.13;;;24.20;;
53309;SDS011;39197;53.200;5.792;2023-05-07T08:03:01;27.08;;;24.13;;
53309;SDS011;39197;53.200;5.792;2023-05-07T08:05:28;28.33;;;24.50;;
53309;SDS011;39197;53.200;5.792;2023-05-07T08:07:54;26.30;;;23.52;;
53309;SDS011;39197;53.200;5.792;2023-05-07T08:10:21;24.83;;;22.23;;
53309;SDS011;39197;53.200;5.792;2023-05-07T08:12:50;26.08;;;23.38;;
53309;SDS011;39197;53.200;5.792;2023-05-07T08:15:16;27.05;;;22.40;;
53309;SDS011;39197;53.200;5.792;2023-05-07T08:17:42;25.05;;;22.35;;
53309;SDS011;39197;53.200;5.792;2023-05-07T08:20:08;24.67;;;22.17;;
53309;SDS011;39197;53.200;5.792;2023-05-07T08:22:35;24.08;;;21.58;;
53309;SDS011;39197;53.200;5.792;2023-05-07T08:25:00;24.48;;;21.85;;
53309;SDS011;39197;53.200;5.792;2023-05-07T08:27:26;23.73;;;21.33;;
53309;SDS011;39197;53.200;5.792;2023-05-07T08:29:52;26.83;;;22.73;;
53309;SDS011;39197;53.200;5.792;2023-05-07T08:32:18;23.95;;;21.38;;
53309;SDS011;39197;53.200;5.792;2023-05-07T08:34:43;24.15;;;21.67;;
53309;SDS011;39197;53.200;5.792;2023-05-07T08:37:09;23.10;;;20.80;;
53309;SDS011;39197;53.200;5.792;2023-05-07T08:39:35;23.23;;;20.75;;
53309;SDS011;39197;53.200;5.792;2023-05-07T08:42:00;24.40;;;20.60;;
53309;SDS011;39197;53.200;5.792;2023-05-07T08:44:28;22.45;;;20.15;;
53309;SDS011;39197;53.200;5.792;2023-05-07T08:46:57;25.15;;;20.13;;
53309;SDS011;39197;53.200;5.792;2023-05-07T08:49:25;21.73;;;19.38;;
53309;SDS011;39197;53.200;5.792;2023-05-07T08:51:52;20.45;;;18.35;;
53309;SDS011;39197;53.200;5.792;2023-05-07T08:54:17;22.05;;;19.52;;
53309;SDS011;39197;53.200;5.792;2023-05-07T08:56:44;21.70;;;19.52;;
53309;SDS011;39197;53.200;5.792;2023-05-07T08:59:12;21.85;;;19.58;;
53309;SDS011;39197;53.200;5.792;2023-05-07T09:01:37;23.15;;;19.20;;
53309;SDS011;39197;53.200;5.792;2023-05-07T09:04:03;19.67;;;17.65;;
53309;SDS011;39197;53.200;5.792;2023-05-07T09:06:29;20.20;;;18.15;;
53309;SDS011;39197;53.200;5.792;2023-05-07T09:08:55;19.65;;;17.83;;
53309;SDS011;39197;53.200;5.792;2023-05-07T09:11:22;18.98;;;17.08;;
53309;SDS011;39197;53.200;5.792;2023-05-07T09:13:51;19.30;;;17.05;;
53309;SDS011;39197;53.200;5.792;2023-05-07T09:16:20;19.23;;;17.42;;
53309;SDS011;39197;53.200;5.792;2023-05-07T09:18:46;18.92;;;17.02;;
53309;SDS011;39197;53.200;5.792;2023-05-07T09:21:17;20.75;;;18.60;;
53309;SDS011;39197;53.200;5.792;2023-05-07T09:23:44;19.85;;;17.75;;
53309;SDS011;39197;53.200;5.792;2023-05-07T09:26:10;20.35;;;18.25;;
53309;SDS011;39197;53.200;5.792;2023-05-07T09:28:40;20.17;;;18.05;;
53309;SDS011;39197;53.200;5.792;2023-05-07T09:31:07;19.45;;;17.45;;
53309;SDS011;39197;53.200;5.792;2023-05-07T09:33:33;20.05;;;17.92;;
53309;SDS011;39197;53.200;5.792;2023-05-07T09:36:03;19.77;;;17.77;;
53309;SDS011;39197;53.200;5.792;2023-05-07T09:38:30;18.55;;;16.75;;
53309;SDS011;39197;53.200;5.792;2023-05-07T09:41:04;21.50;;;19.27;;
53309;SDS011;39197;53.200;5.792;2023-05-07T09:43:31;20.63;;;18.50;;
53309;SDS011;39197;53.200;5.792;2023-05-07T09:46:01;20.55;;;18.50;;
53309;SDS011;39197;53.200;5.792;2023-05-07T09:48:38;19.70;;;17.75;;
53309;SDS011;39197;53.200;5.792;2023-05-07T09:51:15;19.88;;;17.77;;
53309;SDS011;39197;53.200;5.792;2023-05-07T09:53:52;19.88;;;17.80;;
53309;SDS011;39197;53.200;5.792;2023-05-07T09:56:18;21.40;;;19.08;;
53309;SDS011;39197;53.200;5.792;2023-05-07T09:58:45;20.55;;;18.42;;
53309;SDS011;39197;53.200;5.792;2023-05-07T10:01:12;20.58;;;18.40;;
53309;SDS011;39197;53.200;5.792;2023-05-07T10:03:41;21.05;;;18.95;;
53309;SDS011;39197;53.200;5.792;2023-05-07T10:06:09;19.58;;;17.58;;
53309;SDS011;39197;53.200;5.792;2023-05-07T10:08:37;20.08;;;17.98;;
53309;SDS011;39197;53.200;5.792;2023-05-07T10:11:03;21.42;;;19.30;;
53309;SDS011;39197;53.200;5.792;2023-05-07T10:13:31;19.75;;;17.70;;
53309;SDS011;39197;53.200;5.792;2023-05-07T10:16:06;19.55;;;17.73;;
53309;SDS011;39197;53.200;5.792;2023-05-07T10:18:32;20.17;;;18.00;;
53309;SDS011;39197;53.200;5.792;2023-05-07T10:21:03;20.63;;;18.52;;
53309;SDS011;39197;53.200;5.792;2023-05-07T10:23:33;19.73;;;17.70;;
53309;SDS011;39197;53.200;5.792;2023-05-07T10:25:59;20.33;;;18.23;;
53309;SDS011;39197;53.200;5.792;2023-05-07T10:28:29;19.83;;;18.02;;
53309;SDS011;39197;53.200;5.792;2023-05-07T10:31:00;20.15;;;18.10;;
53309;SDS011;39197;53.200;5.792;2023-05-07T10:33:35;20.02;;;17.90;;
53309;SDS011;39197;53.200;5.792;2023-05-07T10:36:02;19.98;;;18.08;;
53309;SDS011;39197;53.200;5.792;2023-05-07T10:38:30;20.15;;;18.17;;
53309;SDS011;39197;53.200;5.792;2023-05-07T10:40:56;18.55;;;16.70;;
53309;SDS011;39197;53.200;5.792;2023-05-07T10:43:22;19.13;;;17.33;;
53309;SDS011;39197;53.200;5.792;2023-05-07T10:51:33;19.63;;;17.83;;
53309;SDS011;39197;53.200;5.792;2023-05-07T10:56:35;18.63;;;16.67;;
53309;SDS011;39197;53.200;5.792;2023-05-07T11:02:09;18.95;;;17.08;;
53309;SDS011;39197;53.200;5.792;2023-05-07T11:04:36;18.80;;;17.10;;
53309;SDS011;39197;53.200;5.792;2023-05-07T11:15:05;17.33;;;15.63;;
53309;SDS011;39197;53.200;5.792;2023-05-07T11:17:32;18.13;;;16.23;;
53309;SDS011;39197;53.200;5.792;2023-05-07T11:19:59;19.92;;;17.80;;
53309;SDS011;39197;53.200;5.792;2023-05-07T11:25:04;19.98;;;17.98;;
53309;SDS011;39197;53.200;5.792;2023-05-07T11:27:33;19.67;;;17.67;;
53309;SDS011;39197;53.200;5.792;2023-05-07T11:29:59;18.33;;;16.65;;
53309;SDS011;39197;53.200;5.792;2023-05-07T11:32:28;19.00;;;17.15;;
53309;SDS011;39197;53.200;5.792;2023-05-07T11:34:56;18.95;;;17.20;;
53309;SDS011;39197;53.200;5.792;2023-05-07T11:37:23;19.20;;;17.30;;
53309;SDS011;39197;53.200;5.792;2023-05-07T11:39:49;19.05;;;16.67;;
53309;SDS011;39197;53.200;5.792;2023-05-07T11:42:27;20.30;;;18.38;;
53309;SDS011;39197;53.200;5.792;2023-05-07T11:44:53;19.35;;;17.55;;
53309;SDS011;39197;53.200;5.792;2023-05-07T11:47:20;27.25;;;24.38;;
53309;SDS011;39197;53.200;5.792;2023-05-07T11:49:49;19.50;;;17.42;;
53309;SDS011;39197;53.200;5.792;2023-05-07T11:52:19;19.70;;;17.90;;
53309;SDS011;39197;53.200;5.792;2023-05-07T11:57:16;18.77;;;16.88;;
53309;SDS011;39197;53.200;5.792;2023-05-07T11:59:41;18.73;;;17.00;;
53309;SDS011;39197;53.200;5.792;2023-05-07T12:02:09;19.77;;;17.95;;
53309;SDS011;39197;53.200;5.792;2023-05-07T12:04:35;18.40;;;16.65;;
53309;SDS011;39197;53.200;5.792;2023-05-07T12:07:01;17.48;;;15.82;;
53309;SDS011;39197;53.200;5.792;2023-05-07T12:09:26;17.88;;;16.17;;
53309;SDS011;39197;53.200;5.792;2023-05-07T12:11:53;17.25;;;15.63;;
53309;SDS011;39197;53.200;5.792;2023-05-07T12:14:21;18.05;;;16.20;;
53309;SDS011;39197;53.200;5.792;2023-05-07T12:16:46;17.52;;;15.93;;
53309;SDS011;39197;53.200;5.792;2023-05-07T12:19:12;17.45;;;15.85;;
53309;SDS011;39197;53.200;5.792;2023-05-07T12:21:38;16.30;;;14.85;;
53309;SDS011;39197;53.200;5.792;2023-05-07T12:24:04;17.83;;;15.38;;
53309;SDS011;39197;53.200;5.792;2023-05-07T12:26:30;19.83;;;17.67;;
53309;SDS011;39197;53.200;5.792;2023-05-07T12:28:59;18.73;;;17.02;;
53309;SDS011;39197;53.200;5.792;2023-05-07T12:31:25;15.80;;;14.38;;
53309;SDS011;39197;53.200;5.792;2023-05-07T12:33:51;16.73;;;15.23;;
53309;SDS011;39197;53.200;5.792;2023-05-07T12:36:16;18.33;;;16.33;;
53309;SDS011;39197;53.200;5.792;2023-05-07T12:38:46;16.42;;;15.02;;
53309;SDS011;39197;53.200;5.792;2023-05-07T12:41:15;15.05;;;13.75;;
53309;SDS011;39197;53.200;5.792;2023-05-07T12:43:43;16.80;;;15.25;;
53309;SDS011;39197;53.200;5.792;2023-05-07T12:46:09;16.77;;;15.27;;
53309;SDS011;39197;53.200;5.792;2023-05-07T12:48:38;17.88;;;16.10;;
53309;SDS011;39197;53.200;5.792;2023-05-07T12:51:10;14.40;;;13.07;;
53309;SDS011;39197;53.200;5.792;2023-05-07T12:53:41;16.95;;;15.40;;
53309;SDS011;39197;53.200;5.792;2023-05-07T12:56:07;16.10;;;14.63;;
53309;SDS011;39197;53.200;5.792;2023-05-07T12:58:33;16.17;;;14.73;;
53309;SDS011;39197;53.200;5.792;2023-05-07T13:01:05;14.82;;;13.43;;
53309;SDS011;39197;53.200;5.792;2023-05-07T13:03:35;13.55;;;11.77;;
53309;SDS011;39197;53.200;5.792;2023-05-07T13:06:03;15.07;;;13.57;;
53309;SDS011;39197;53.200;5.792;2023-05-07T13:10:58;14.40;;;13.10;;
53309;SDS011;39197;53.200;5.792;2023-05-07T13:13:28;14.48;;;13.07;;
53309;SDS011;39197;53.200;5.792;2023-05-07T13:15:57;13.32;;;12.07;;
53309;SDS011;39197;53.200;5.792;2023-05-07T13:18:24;14.35;;;13.05;;
53309;SDS011;39197;53.200;5.792;2023-05-07T13:20:50;13.48;;;12.30;;
53309;SDS011;39197;53.200;5.792;2023-05-07T13:23:17;13.82;;;12.70;;
53309;SDS011;39197;53.200;5.792;2023-05-07T13:25:42;14.07;;;12.82;;
53309;SDS011;39197;53.200;5.792;2023-05-07T13:28:08;12.68;;;11.57;;
53309;SDS011;39197;53.200;5.792;2023-05-07T13:30:34;17.73;;;16.08;;
53309;SDS011;39197;53.200;5.792;2023-05-07T13:32:59;13.48;;;12.20;;
53309;SDS011;39197;53.200;5.792;2023-05-07T13:35:27;13.02;;;11.82;;
53309;SDS011;39197;53.200;5.792;2023-05-07T13:37:53;15.43;;;14.02;;
53309;SDS011;39197;53.200;5.792;2023-05-07T13:40:20;13.23;;;11.93;;
53309;SDS011;39197;53.200;5.792;2023-05-07T13:42:46;13.77;;;12.48;;
53309;SDS011;39197;53.200;5.792;2023-05-07T13:45:12;15.25;;;13.73;;
53309;SDS011;39197;53.200;5.792;2023-05-07T13:47:40;13.18;;;12.07;;
53309;SDS011;39197;53.200;5.792;2023-05-07T13:50:06;16.80;;;15.30;;
53309;SDS011;39197;53.200;5.792;2023-05-07T13:52:40;14.05;;;12.75;;
53309;SDS011;39197;53.200;5.792;2023-05-07T13:55:08;17.27;;;15.70;;
53309;SDS011;39197;53.200;5.792;2023-05-07T13:57:35;14.25;;;12.90;;
53309;SDS011;39197;53.200;5.792;2023-05-07T14:00:01;14.73;;;13.30;;
53309;SDS011;39197;53.200;5.792;2023-05-07T14:02:29;14.40;;;13.10;;
53309;SDS011;39197;53.200;5.792;2023-05-07T14:04:55;15.57;;;14.07;;
53309;SDS011;39197;53.200;5.792;2023-05-07T14:07:21;14.38;;;12.93;;
53309;SDS011;39197;53.200;5.792;2023-05-07T14:09:47;18.17;;;16.23;;
53309;SDS011;39197;53.200;5.792;2023-05-07T14:12:12;15.10;;;13.48;;
53309;SDS011;39197;53.200;5.792;2023-05-07T14:14:38;13.55;;;12.30;;
53309;SDS011;39197;53.200;5.792;2023-05-07T14:17:04;15.48;;;12.93;;
53309;SDS011;39197;53.200;5.792;2023-05-07T14:19:29;15.13;;;13.75;;
53309;SDS011;39197;53.200;5.792;2023-05-07T14:21:55;13.70;;;12.30;;
53309;SDS011;39197;53.200;5.792;2023-05-07T14:24:21;15.93;;;14.52;;
53309;SDS011;39197;53.200;5.792;2023-05-07T14:26:46;14.73;;;13.20;;
53309;SDS011;39197;53.200;5.792;2023-05-07T14:29:12;13.40;;;12.15;;
53309;SDS011;39197;53.200;5.792;2023-05-07T14:31:38;15.90;;;14.43;;
53309;SDS011;39197;53.200;5.792;2023-05-07T14:34:03;13.63;;;12.43;;
53309;SDS011;39197;53.200;5.792;2023-05-07T14:36:29;13.98;;;12.68;;
53309;SDS011;39197;53.200;5.792;2023-05-07T14:38:56;16.60;;;15.00;;
53309;SDS011;39197;53.200;5.792;2023-05-07T14:41:24;14.40;;;13.00;;
53309;SDS011;39197;53.200;5.792;2023-05-07T14:43:50;18.25;;;16.45;;